Time;durP1;ratioP1;P1;durP2;ratioP2;P2;SDS_P1;SDS_P2;PMS_P1;PMS_P2;Temp;Humidity;BMP_temperature;BMP_pressure;BME280_temperature;BME280_humidity;BME280_pressure;Samples;Min_cycle;Max_cycle;Signal;HPM_P1;HPM_P2
2022/07/31 00:33:24;;;;;;;8.73;6.32;;;26.70;99.90;;;;;;4934518;23;20494;-91
2022/07/31 06:32:51;;;;;;;7.63;4.13;;;32.40;99.90;;;;;;5987240;23;20081;31
2022/07/31 06:35:09;;;;;;;9.27;3.88;;;32.90;99.90;;;;;;4814181;29;20276;-76
2022/07/31 06:37:55;;;;;;;9.32;3.92;;;32.70;99.90;;;;;;4808599;29;20116;-89
2022/07/31 06:40:22;;;;;;;11.02;4.80;;;33.10;99.90;;;;;;4807239;29;20547;-90
2022/07/31 06:43:07;;;;;;;5.35;3.75;;;32.90;99.90;;;;;;4807555;29;20508;-90
2022/07/31 06:46:13;;;;;;;6.72;4.28;;;32.50;99.90;;;;;;4799035;29;20031;-89
2022/07/31 06:49:02;;;;;;;6.50;3.95;;;32.80;99.90;;;;;;4785859;29;20106;-91
2022/07/31 06:51:29;;;;;;;7.78;4.55;;;33.50;99.90;;;;;;4800850;29;20046;-89
2022/07/31 06:53:55;;;;;;;9.15;3.92;;;33.70;99.90;;;;;;4791601;29;20035;-89
2022/07/31 06:56:22;;;;;;;12.00;4.60;;;33.50;99.90;;;;;;4822024;29;20071;-89
2022/07/31 06:58:48;;;;;;;6.00;4.05;;;32.90;99.90;;;;;;4791637;29;20062;-89
2022/07/31 07:01:15;;;;;;;5.97;3.97;;;32.50;99.90;;;;;;4806724;29;20038;-93
2022/07/31 07:03:41;;;;;;;5.55;3.55;;;32.40;99.90;;;;;;4806781;29;20035;-89
2022/07/31 07:06:08;;;;;;;4.63;3.78;;;32.80;99.90;;;;;;4806481;29;20080;-89
2022/07/31 07:08:34;;;;;;;4.65;4.07;;;33.20;99.90;;;;;;4806955;29;20103;-92
2022/07/31 07:14:26;;;;;;;8.65;4.40;;;33.90;99.90;;;;;;5137040;23;20057;-94
2022/07/31 07:16:53;;;;;;;6.25;3.85;;;33.90;99.90;;;;;;4883035;29;20076;-94
2022/07/31 07:19:20;;;;;;;8.00;4.25;;;33.50;99.90;;;;;;4883390;29;20084;-94
2022/07/31 07:21:49;;;;;;;6.53;4.35;;;33.30;99.90;;;;;;4868245;29;20040;-93
2022/07/31 07:24:16;;;;;;;8.00;4.40;;;33.30;99.90;;;;;;4884713;29;20021;-95
2022/07/31 07:26:56;;;;;;;9.95;4.00;;;33.00;99.90;;;;;;4870211;29;20088;-94
2022/07/31 07:29:23;;;;;;;6.93;4.18;;;32.70;99.90;;;;;;4882957;29;20116;-94
2022/07/31 07:31:54;;;;;;;8.73;4.05;;;32.30;99.90;;;;;;4882639;29;20119;-93
2022/07/31 07:34:21;;;;;;;6.60;4.22;;;32.90;99.90;;;;;;4867160;29;20032;-94
2022/07/31 07:36:48;;;;;;;4.75;4.25;;;33.40;99.90;;;;;;4867117;29;20079;-94
2022/07/31 07:39:21;;;;;;;7.63;3.63;;;33.80;99.90;;;;;;4883731;29;20035;-94
2022/07/31 07:41:50;;;;;;;5.82;3.90;;;33.40;99.90;;;;;;4882619;29;20036;-94
2022/07/31 07:44:17;;;;;;;7.65;3.80;;;33.20;99.90;;;;;;4883815;29;20372;-94
2022/07/31 07:46:44;;;;;;;6.13;3.35;;;33.40;99.90;;;;;;4883399;29;20038;-95
2022/07/31 07:49:14;;;;;;;7.72;3.90;;;33.60;99.90;;;;;;4870185;29;20111;-94
2022/07/31 08:17:24;;;;;;;6.43;3.42;;;32.70;99.90;;;;;;4911587;29;20573;-87
2022/07/31 08:19:50;;;;;;;5.45;3.45;;;32.40;99.90;;;;;;4904460;29;20143;-87
2022/07/31 08:22:18;;;;;;;11.27;3.72;;;32.40;99.90;;;;;;4904586;29;20466;-86
2022/07/31 08:24:45;;;;;;;8.95;4.20;;;32.40;99.90;;;;;;4904528;29;20043;-88
2022/07/31 08:27:23;;;;;;;7.60;3.25;;;32.20;99.90;;;;;;4888758;29;20020;-89
2022/07/31 08:29:57;;;;;;;5.95;3.53;;;32.20;99.90;;;;;;4888764;29;20036;-85
2022/07/31 08:32:26;;;;;;;7.53;3.20;;;32.10;99.90;;;;;;4904639;29;20028;-87
2022/07/31 08:35:29;;;;;;;6.03;3.10;;;32.30;99.90;;;;;;4906692;29;20099;-88
2022/07/31 08:37:56;;;;;;;7.57;3.28;;;32.80;99.90;;;;;;4904237;29;20040;-88
2022/07/31 08:40:24;;;;;;;4.53;4.10;;;33.10;99.90;;;;;;4904183;29;20032;-87
2022/07/31 08:42:52;;;;;;;7.68;4.10;;;32.90;99.90;;;;;;4888722;29;20036;-87
2022/07/31 08:45:21;;;;;;;5.32;3.80;;;32.10;99.90;;;;;;4904969;29;20028;-92
2022/07/31 09:15:22;;;;;;;7.50;3.22;;;32.50;99.90;;;;;;5712975;23;20060;-91
2022/07/31 09:17:58;;;;;;;4.95;3.30;;;32.40;99.90;;;;;;4890187;29;20036;-93
2022/07/31 09:21:06;;;;;;;7.20;3.53;;;32.20;99.90;;;;;;4907398;29;20092;-93
2022/07/31 09:24:12;;;;;;;8.32;2.95;;;32.40;99.90;;;;;;4927673;23;20124;-93
2022/07/31 09:38:47;;;;;;;10.20;3.35;;;31.90;99.90;;;;;;4910415;29;20052;-92
2022/07/31 09:41:40;;;;;;;6.13;3.15;;;31.90;99.90;;;;;;4890876;29;20407;-92
2022/07/31 09:44:18;;;;;;;4.95;3.47;;;32.10;99.90;;;;;;4885922;29;20052;-92
2022/07/31 09:46:48;;;;;;;6.50;3.17;;;32.20;99.90;;;;;;4886176;29;20135;-91
2022/07/31 09:49:37;;;;;;;5.85;3.70;;;32.30;99.90;;;;;;4872651;29;20052;-92
2022/07/31 09:52:18;;;;;;;7.28;3.55;;;32.10;99.90;;;;;;4899290;29;20036;-91
2022/07/31 09:55:20;;;;;;;4.25;3.60;;;31.90;99.90;;;;;;4889120;29;20068;-93
2022/07/31 09:57:56;;;;;;;5.50;3.47;;;31.90;99.90;;;;;;4888511;29;20059;-94
2022/07/31 10:00:40;;;;;;;12.15;3.78;;;32.10;99.90;;;;;;4887627;29;20033;-95
2022/07/31 10:03:49;;;;;;;8.05;3.47;;;32.30;99.90;;;;;;4866508;29;20045;-95
2022/07/31 10:06:24;;;;;;;6.00;3.58;;;32.30;99.90;;;;;;4846909;29;20116;-93
2022/07/31 10:08:52;;;;;;;6.93;3.80;;;32.10;99.90;;;;;;4846745;29;20128;-94
2022/07/31 10:11:41;;;;;;;8.88;3.75;;;32.20;99.90;;;;;;4846718;29;20066;-92
2022/07/31 10:14:27;;;;;;;5.13;3.17;;;31.90;99.90;;;;;;4846642;29;20490;-92
2022/07/31 10:16:57;;;;;;;5.70;3.03;;;31.70;99.90;;;;;;4861877;29;20049;-93
2022/07/31 10:19:57;;;;;;;5.13;3.40;;;31.60;99.90;;;;;;4857060;29;20065;-93
2022/07/31 10:23:43;;;;;;;;;;;;;;;;;;;;;
2022/07/31 10:26:48;;;;;;;5.80;3.08;;;31.70;99.90;;;;;;4854205;29;20057;-94
2022/07/31 10:29:59;;;;;;;6.82;3.53;;;31.50;99.90;;;;;;4784262;30;20047;-93
2022/07/31 10:32:32;;;;;;;6.72;3.42;;;31.60;99.90;;;;;;4726268;30;20084;-93
2022/07/31 10:35:21;;;;;;;6.63;2.95;;;31.60;99.90;;;;;;4721046;30;20106;-93
2022/07/31 10:38:38;;;;;;;5.18;3.55;;;31.60;99.90;;;;;;4719323;30;20080;-94
2022/07/31 10:41:48;;;;;;;5.70;2.67;;;31.60;99.90;;;;;;4752548;30;20036;-94
2022/07/31 10:44:44;;;;;;;4.43;2.47;;;31.50;99.90;;;;;;4753444;30;20195;-93
2022/07/31 10:47:26;;;;;;;4.70;2.80;;;31.40;99.90;;;;;;4756857;30;20104;-93
2022/07/31 10:50:23;;;;;;;7.45;2.45;;;31.80;99.90;;;;;;4773469;30;20036;-93
2022/07/31 10:53:18;;;;;;;6.63;3.28;;;31.70;99.90;;;;;;4773892;30;20487;-94
2022/07/31 10:56:22;;;;;;;5.80;3.10;;;31.80;99.90;;;;;;4719120;30;20098;-94
2022/07/31 10:59:08;;;;;;;6.45;3.20;;;31.60;99.90;;;;;;4719026;30;20053;-93
2022/07/31 11:01:59;;;;;;;7.43;2.67;;;32.00;99.90;;;;;;4721710;30;20073;-92
2022/07/31 11:04:51;;;;;;;5.57;2.45;;;31.90;99.90;;;;;;4734157;30;20140;-93
2022/07/31 11:07:39;;;;;;;5.38;2.70;;;31.90;99.90;;;;;;4725027;30;20045;-94
2022/07/31 11:10:21;;;;;;;9.10;3.40;;;32.10;99.90;;;;;;4788064;29;20038;-95
2022/07/31 11:13:11;;;;;;;8.48;2.60;;;32.40;99.90;;;;;;4800874;29;20042;-94
2022/07/31 11:16:23;;;;;;;5.13;2.40;;;32.20;99.90;;;;;;4794064;30;20039;-93
2022/07/31 11:19:10;;;;;;;7.72;3.03;;;31.80;99.90;;;;;;4794959;29;20031;-93
2022/07/31 11:21:52;;;;;;;4.65;2.67;;;32.10;99.90;;;;;;4789694;29;20027;-93
2022/07/31 11:25:02;;;;;;;6.10;3.28;;;31.90;99.90;;;;;;4792018;29;20039;-94
2022/07/31 11:27:34;;;;;;;7.95;3.30;;;32.20;99.90;;;;;;4740663;30;20093;-94
2022/07/31 11:30:26;;;;;;;7.15;3.63;;;32.30;99.90;;;;;;4730936;30;20044;-94
2022/07/31 11:33:09;;;;;;;6.40;4.93;;;32.30;99.90;;;;;;4810771;29;20054;-95
2022/07/31 11:35:38;;;;;;;5.50;5.00;;;32.50;99.90;;;;;;4812836;29;20050;-94
2022/07/31 11:38:08;;;;;;;5.30;4.80;;;32.70;99.90;;;;;;4799994;29;20054;-92
2022/07/31 11:40:59;;;;;;;5.03;4.50;;;32.70;99.90;;;;;;4829507;29;20133;-92
2022/07/31 11:43:47;;;;;;;6.60;4.70;;;32.70;99.90;;;;;;4818353;29;20144;-94
2022/07/31 11:46:32;;;;;;;10.38;5.55;;;32.70;99.90;;;;;;4802080;29;20157;-92
2022/07/31 11:50:12;;;;;;;;;;;;;;;;;;;;;
2022/07/31 11:53:11;;;;;;;7.60;6.60;;;33.20;99.90;;;;;;4883893;29;20143;-92
2022/07/31 11:55:53;;;;;;;7.07;6.40;;;33.20;99.90;;;;;;4858520;29;20102;-92
2022/07/31 11:58:46;;;;;;;7.80;7.03;;;32.90;99.90;;;;;;4891532;29;20033;-95
2022/07/31 12:01:16;;;;;;;8.20;7.43;;;32.90;99.90;;;;;;4893998;29;20047;-93
2022/07/31 12:03:51;;;;;;;8.82;8.00;;;32.90;99.90;;;;;;4893896;29;20084;-92
2022/07/31 12:07:15;;;;;;;8.43;7.85;;;32.70;99.90;;;;;;4889868;29;20044;-93
2022/07/31 12:09:50;;;;;;;;;;;32.80;99.90;;;;;;4838953;29;20054;-94
2022/07/31 12:12:38;;;;;;;8.40;7.90;;;32.70;99.90;;;;;;4839047;29;19967;-94
2022/07/31 12:15:26;;;;;;;8.95;8.15;;;32.90;99.90;;;;;;4835608;29;20041;-94
2022/07/31 12:18:03;;;;;;;8.50;7.75;;;32.90;99.90;;;;;;4833921;29;20049;-94
2022/07/31 12:20:39;;;;;;;8.00;7.30;;;32.80;99.90;;;;;;4837307;29;20046;-94
2022/07/31 12:23:27;;;;;;;6.75;5.97;;;32.80;99.90;;;;;;4838350;29;20528;-92
2022/07/31 12:25:56;;;;;;;7.97;5.53;;;32.80;99.90;;;;;;4837263;29;20042;-94
2022/07/31 12:28:23;;;;;;;5.88;5.38;;;32.90;99.90;;;;;;4838249;29;20042;-94
2022/07/31 12:31:05;;;;;;;5.25;4.50;;;32.90;99.90;;;;;;4840987;29;20034;-95
2022/07/31 12:33:43;;;;;;;7.20;4.47;;;33.00;99.90;;;;;;4819243;29;20477;-94
2022/07/31 12:36:15;;;;;;;8.98;4.15;;;32.70;99.90;;;;;;4820228;29;20042;-93
2022/07/31 12:38:59;;;;;;;9.93;4.15;;;32.40;99.90;;;;;;4816165;29;20536;-93
2022/07/31 12:41:59;;;;;;;9.23;3.80;;;32.30;99.90;;;;;;4831878;29;20034;-95
2022/07/31 12:44:34;;;;;;;9.25;3.50;;;32.20;99.90;;;;;;4825269;29;20042;-93
2022/07/31 12:47:04;;;;;;;7.40;3.30;;;32.10;99.90;;;;;;4850574;29;20053;-93
2022/07/31 12:49:56;;;;;;;4.72;3.17;;;31.90;99.90;;;;;;4839916;29;20045;-94
2022/07/31 12:52:27;;;;;;;8.55;4.30;;;31.90;99.90;;;;;;4819702;29;20043;-93
2022/07/31 12:55:18;;;;;;;;;;;;;;;;;;;;;
2022/07/31 12:58:03;;;;;;;4.07;3.42;;;32.20;99.90;;;;;;4832007;29;20132;-94
2022/07/31 13:00:55;;;;;;;6.93;3.50;;;32.10;99.90;;;;;;4814815;29;20041;-94
2022/07/31 13:03:27;;;;;;;7.00;3.55;;;32.10;99.90;;;;;;4787638;29;20053;-95
2022/07/31 13:05:55;;;;;;;5.75;3.08;;;32.20;99.90;;;;;;4818075;29;20034;-94
2022/07/31 13:08:22;;;;;;;10.98;3.47;;;32.10;99.90;;;;;;4813958;29;20034;-93
2022/07/31 13:10:49;;;;;;;8.25;3.55;;;32.10;99.90;;;;;;4816716;29;20042;-94
2022/07/31 13:13:22;;;;;;;7.95;2.95;;;32.10;99.90;;;;;;4814333;29;20042;-94
2022/07/31 13:15:56;;;;;;;6.85;3.05;;;31.80;99.90;;;;;;4815177;29;20078;-93
2022/07/31 13:18:28;;;;;;;5.45;3.65;;;31.70;99.90;;;;;;4815086;29;20411;-94
2022/07/31 13:20:59;;;;;;;4.88;3.75;;;31.60;99.90;;;;;;4816159;29;20042;-94
2022/07/31 13:23:44;;;;;;;;;;;;;;;;;;;;;
2022/07/31 13:26:26;;;;;;;3.70;3.38;;;31.80;99.90;;;;;;4895093;29;20062;-93
2022/07/31 13:28:58;;;;;;;;;;;32.00;99.90;;;;;;4890016;29;20119;-93
2022/07/31 13:31:31;;;;;;;4.03;3.40;;;32.10;99.90;;;;;;4900716;23;19924;-94
2022/07/31 13:34:43;;;;;;;8.65;3.17;;;31.90;99.90;;;;;;4876561;29;20045;-94
2022/07/31 13:37:45;;;;;;;7.10;3.10;;;31.70;99.90;;;;;;4887262;29;20076;-93
2022/07/31 13:41:19;;;;;;;6.45;3.22;;;31.80;99.90;;;;;;4870541;29;20041;-93
2022/07/31 13:43:08;;;;;;;7.18;3.55;;;31.60;99.90;;;;;;4884669;29;20120;-94
2022/07/31 13:45:36;;;;;;;4.18;3.20;;;31.80;99.90;;;;;;4870167;29;20033;-94
2022/07/31 13:48:04;;;;;;;4.93;3.72;;;31.80;99.90;;;;;;4869033;29;20037;-93
2022/07/31 13:50:58;;;;;;;4.50;3.85;;;31.50;99.90;;;;;;4869930;29;20041;-94
2022/07/31 13:53:36;;;;;;;6.90;3.90;;;31.50;99.90;;;;;;4870544;29;20057;-93
2022/07/31 13:56:05;;;;;;;6.45;4.47;;;31.50;99.90;;;;;;4869977;29;20041;-93
2022/07/31 14:01:30;;;;;;;4.40;4.00;;;31.30;99.90;;;;;;4869364;29;20073;-94
2022/07/31 14:04:00;;;;;;;9.23;4.43;;;31.50;99.90;;;;;;4858300;29;20037;-93
2022/07/31 14:06:48;;;;;;;5.15;4.45;;;31.30;99.90;;;;;;4861070;29;20056;-94
2022/07/31 14:09:16;;;;;;;7.60;4.90;;;31.40;99.90;;;;;;4868462;29;20037;-94
2022/07/31 14:12:09;;;;;;;9.57;5.70;;;31.40;99.90;;;;;;4869580;29;20568;-93
2022/07/31 14:14:59;;;;;;;7.38;5.78;;;31.40;99.90;;;;;;4856682;29;20089;-93
2022/07/31 14:18:18;;;;;;;9.75;5.82;;;31.20;99.90;;;;;;4872466;29;20049;-93
2022/07/31 16:39:58;;;;;;;8.32;5.40;;;29.10;99.90;;;;;;1934993;23;20334;-92
2022/07/31 16:42:29;;;;;;;6.40;4.90;;;29.10;99.90;;;;;;4870465;29;20040;-93
2022/07/31 16:45:05;;;;;;;7.85;4.18;;;29.00;99.90;;;;;;4872179;29;20068;-92
2022/07/31 16:47:31;;;;;;;7.38;5.30;;;28.90;99.90;;;;;;4870654;29;20115;-92
2022/07/31 16:49:58;;;;;;;12.57;4.95;;;29.00;99.90;;;;;;4867648;29;20033;-93
2022/07/31 16:52:27;;;;;;;6.43;5.80;;;29.00;99.90;;;;;;4867399;29;20025;-91
2022/07/31 16:54:59;;;;;;;6.13;5.72;;;29.10;99.90;;;;;;4868116;29;20040;-93
2022/07/31 16:57:26;;;;;;;7.45;6.32;;;29.10;99.90;;;;;;4870129;29;20064;-94
2022/07/31 16:59:56;;;;;;;6.78;6.30;;;29.00;99.90;;;;;;4868161;29;20357;-93
2022/07/31 17:02:26;;;;;;;6.85;5.82;;;29.00;99.90;;;;;;4870826;29;20047;-93
2022/07/31 17:05:01;;;;;;;7.15;5.75;;;29.00;99.90;;;;;;4873735;29;20029;-93
2022/07/31 17:07:27;;;;;;;12.00;6.10;;;29.00;99.90;;;;;;4869679;29;20067;-93
2022/07/31 17:09:58;;;;;;;5.63;5.10;;;29.00;99.90;;;;;;4867586;29;20547;-92
2022/07/31 17:12:25;;;;;;;6.15;5.00;;;28.90;99.90;;;;;;4868458;29;20166;-93
2022/07/31 17:14:51;;;;;;;6.05;5.55;;;28.90;99.90;;;;;;4869385;29;20037;-93
2022/07/31 17:17:20;;;;;;;5.68;5.28;;;28.90;99.90;;;;;;4868172;29;20041;-95
2022/07/31 17:19:50;;;;;;;5.60;5.20;;;28.80;99.90;;;;;;4869212;29;20029;-92
2022/07/31 17:22:36;;;;;;;5.60;5.07;;;28.70;99.90;;;;;;4881378;29;20041;-93
2022/07/31 17:25:07;;;;;;;5.68;5.18;;;28.60;99.90;;;;;;4875416;29;20041;-93
2022/07/31 17:28:17;;;;;;;11.40;5.20;;;28.50;99.90;;;;;;4873974;29;20033;-93
2022/07/31 17:31:36;;;;;;;5.28;4.80;;;28.50;99.90;;;;;;4981109;23;20023;-93
2022/07/31 19:24:17;;;;;;;9.98;2.45;;;26.90;99.90;;;;;;5872307;23;20975;-93
2022/07/31 19:27:26;;;;;;;4.20;2.10;;;27.00;99.90;;;;;;4910981;29;20422;-94
2022/07/31 19:47:17;;;;;;;9.77;2.20;;;26.70;99.90;;;;;;5256803;23;20055;-89
2022/07/31 19:49:45;;;;;;;6.78;2.72;;;26.60;99.90;;;;;;4901040;29;20028;-91
2022/07/31 19:52:11;;;;;;;6.57;2.20;;;26.60;99.90;;;;;;4901457;29;20032;-93
2022/07/31 19:54:41;;;;;;;4.70;2.35;;;26.60;99.90;;;;;;4894290;29;20029;-94
2022/07/31 19:57:09;;;;;;;8.48;2.70;;;26.60;99.90;;;;;;4882790;29;20044;-93
2022/07/31 19:59:37;;;;;;;9.02;2.13;;;26.60;99.90;;;;;;4882678;29;20024;-92
2022/07/31 20:02:04;;;;;;;8.52;2.22;;;26.70;99.90;;;;;;4882693;29;20456;-93
2022/07/31 20:04:31;;;;;;;9.13;2.00;;;26.70;99.90;;;;;;4882649;29;20386;-93
2022/07/31 20:06:59;;;;;;;12.05;2.30;;;26.70;99.90;;;;;;4882800;29;20036;-94
2022/07/31 20:09:25;;;;;;;8.93;2.38;;;26.60;99.90;;;;;;4882733;29;20096;-93
2022/07/31 20:11:52;;;;;;;8.15;2.10;;;26.60;99.90;;;;;;4882768;29;20093;-93
2022/07/31 20:14:19;;;;;;;18.35;2.80;;;26.60;99.90;;;;;;4883163;29;20029;-93
2022/07/31 20:16:45;;;;;;;10.55;2.78;;;26.50;99.90;;;;;;4882154;29;20105;-92
2022/07/31 20:54:10;;;;;;;11.25;2.67;;;26.20;99.90;;;;;;5978413;23;20059;-92
